Clarksville, OH (45113)

12:53 AM EDT on October 31, 2014 (GMT -0400)
Clarksville, OH - Clinton Co. | Change Station
CLOSE
Current Station
Personal Weather Station
Location: Clarksville, OH
Elevation: 928 ft
Nearby Weather Stations
Active Advisory: Freeze Watch

Elev 928 ft 39.38 °N, 83.98 °W | Updated 43 seconds ago

Clear
Clear
40.8 °F
Feels Like 41 °F
N
0.0
Wind Variable Wind from NNE
Gusts 0.0 mph

Today
High -- | Low -- °F
--% Chance of Precip.
Yesterday
High -- | Low -- °F
Precip. -- in
8:02 AM 6:35 PM
Waxing Crescent, 51% visible
Pressure 30.09 in
Visibility 10.0 miles
Clouds Clear
Windchill 41 °F
Dew Point 40 °F
Humidity 97%
Rainfall 0.00 in
Snow Depth Not available.
UV 0 out of 12
Pollen .20 out of 12
Air Quality Not available.
Flu Activity Not available.
METAR KILN 310354Z AUTO 11003KT 10SM CLR 03/00 A3004 RMK AO2 SLP189 T00330000

More Conditions Fewer Conditions

Pressure 30.09 in
Visibility 10.0 miles
Clouds Clear
Windchill 41 °F
Dew Point 40 °F
Humidity 97%
Rainfall 0.00 in
Snow Depth Not available.
UV 0 out of 12
Pollen .20 out of 12
Air Quality Not available.
Flu Activity Not available.
METAR KILN 310354Z AUTO 11003KT 10SM CLR 03/00 A3004 RMK AO2 SLP189 T00330000

More Conditions Fewer Conditions

10-Day Weather Forecast

Almanac

Astronomy

Oct. 31, 2014 Rise Set
Actual Time
Civil Twilight
Nautical Twilight
Astronomical Twilight
Moon
Length of Visible Light
Length of Day
Tomorrow will be .
, % of the Moon is Illuminated

Today's Extremes

State Highs State Lows

Community

WunderPhotos

Upload Photos

1,766,567 photos uploaded!

WunderBlogs® & News

Nearby

Air Quality

  Air Quality AQ Index Pollutant
Not available.

Snow Depth

Station Depth Elevation

Earthquake Activity

City Distance Mag. Time & Date
Minimum magnitude displayed is 2.5.

Coastal Water Temperatures

Place Temperature

Nearby Weather Stations